Latest Weather Observations for Strathalbyn

IDS60801

Issued at 8:01 pm CDT Thursday 21 February 2019 (issued every 10 minutes, with the page automatically refreshed every 10 minutes)

About weather observations | Map of weather stations | Latest weather observations for SA | Other Formats
Station Details ID: 024580 Name: STRATHALBYN RACECOURSE Lat: -35.28 Lon: 138.89 Height: 58.0 m
Data from the previous 72 hours. | See also: Recent months at Strathalbyn
Date/Time
CDT
Temp
°C
App
Temp
°C
Dew
Point
°C
Rel
Hum
%
Delta-T
°C
Wind Press
QNH
hPa
Press
MSL
hPa
Rain since
9am
mm
Dir  Spd
km/h
Gust
km/h
Spd
kts
Gust
kts
21/08:00pm 17.2 13.6 9.9 62 3.8 S 19 22 10 12 1021.2 1021.0 0.0
21/07:30pm 18.0 13.8 9.9 59 4.3 S 22 26 12 14 1020.9 1020.7 0.0
21/07:00pm 18.9 14.3 9.7 55 4.9 S 24 33 13 18 1020.8 1020.6 0.0
21/06:30pm 19.6 15.0 9.8 53 5.2 S 24 32 13 17 1020.7 1020.5 0.0
21/06:00pm 20.7 16.1 9.6 49 5.9 S 24 30 13 16 1020.7 1020.5 0.0
21/05:30pm 21.0 16.3 9.3 47 6.2 S 24 33 13 18 1020.5 1020.3 0.0
21/05:00pm 21.3 16.6 9.2 46 6.5 SSW 24 32 13 17 1020.4 1020.2 0.0
21/04:30pm 21.6 17.3 9.2 45 6.6 SSW 22 30 12 16 1020.3 1020.1 0.0
21/04:00pm 21.9 17.9 9.1 44 6.8 S 20 30 11 16 1020.6 1020.4 0.0
21/03:30pm 22.3 18.0 9.5 44 6.9 S 22 35 12 19 1020.8 1020.6 0.0
21/03:00pm 22.3 18.2 8.8 42 7.2 S 20 32 11 17 1021.0 1020.8 0.0
21/02:30pm 22.7 17.7 9.5 43 7.1 SSE 26 39 14 21 1021.1 1020.9 0.0
21/02:00pm 22.1 18.4 9.3 44 6.9 SE 19 32 10 17 1021.3 1021.1 0.0
21/01:30pm 22.7 19.6 10.2 45 6.8 SSE 17 30 9 16 1021.4 1021.2 0.0
21/01:00pm 22.4 19.7 10.2 46 6.7 SSE 15 24 8 13 1021.6 1021.4 0.0
21/12:30pm 20.8 17.2 8.4 45 6.5 SSE 17 28 9 15 1021.8 1021.6 0.0
21/12:00pm 21.1 17.6 8.7 45 6.5 SSE 17 26 9 14 1022.0 1021.8 0.0
21/11:30am 20.4 17.8 9.3 49 5.9 S 13 20 7 11 1022.1 1021.9 0.0
21/11:00am 19.2 16.9 9.1 52 5.3 SW 11 24 6 13 1022.1 1021.9 0.0
21/10:30am 19.1 16.7 10.1 56 4.8 SSE 13 19 7 10 1022.0 1021.8 0.0
21/10:00am 18.2 16.0 10.8 62 4.0 S 13 17 7 9 1021.9 1021.7 0.0
21/09:30am 17.6 15.5 11.2 66 3.5 SSE 13 20 7 11 1021.9 1021.7 0.0
21/09:00am 17.4 15.6 10.8 65 3.5 SSE 11 15 6 8 1021.7 1021.5 0.4
21/08:30am 17.0 15.5 11.9 72 2.8 SSE 11 15 6 8 1021.5 1021.3 0.4
21/08:00am 16.6 15.2 12.2 75 2.4 SE 11 17 6 9 1021.1 1020.9 0.4
21/07:30am 16.1 14.7 12.1 77 2.2 SE 11 15 6 8 1020.7 1020.5 0.4
21/07:00am 15.9 15.3 12.3 79 2.0 SW 7 11 4 6 1020.3 1020.1 0.4
21/06:30am 16.0 15.4 12.4 79 2.0 SSW 7 9 4 5 1020.0 1019.8 0.4
21/06:00am 16.1 15.2 12.7 80 1.9 S 9 15 5 8 1019.7 1019.6 0.4
21/05:30am 16.1 15.0 13.2 83 1.6 S 11 13 6 7 1019.4 1019.3 0.4
21/05:00am 16.1 15.6 13.9 87 1.2 SSW 9 13 5 7 1019.3 1019.2 0.4
21/04:30am 16.0 15.9 14.0 88 1.1 WSW 7 9 4 5 1018.9 1018.8 0.4
21/04:00am 16.1 16.1 14.1 88 1.1 SW 7 9 4 5 1019.0 1018.9 0.4
21/03:30am 16.0 16.1 14.5 91 0.9 SW 7 9 4 5 1019.0 1018.9 0.4
21/03:00am 15.8 15.6 14.8 94 0.6 SSW 9 11 5 6 1019.2 1019.1 0.4
21/02:30am 16.0 15.6 15.2 95 0.5 SW 11 15 6 8 1019.3 1019.2 0.4
21/02:00am 15.9 15.8 13.9 88 1.1 SW 7 11 4 6 1019.5 1019.4 0.2
21/01:30am 16.1 15.8 13.4 84 1.5 SW 7 9 4 5 1019.6 1019.5 0.0
21/01:00am 16.2 16.2 13.7 85 1.4 SW 6 9 3 5 1019.7 1019.6 0.0
21/12:30am 16.2 15.8 14.2 88 1.1 SW 9 11 5 6 1019.6 1019.5 0.0
21/12:00am 16.3 17.1 13.8 85 1.4 SW 2 11 1 6 1019.6 1019.5 0.0
 
Date/Time
CDT
Temp
°C
App
Temp
°C
Dew
Point
°C
Rel
Hum
%
Delta-T
°C
Wind Press
QNH
hPa
Press
MSL
hPa
Rain since
9am
mm
Dir  Spd
km/h
Gust
km/h
Spd
kts
Gust
kts
20/11:30pm 16.2 16.2 13.5 84 1.5 SSE 6 7 3 4 1019.6 1019.5 0.0
20/11:00pm 16.7 16.3 13.0 79 2.1 SSE 7 9 4 5 1019.8 1019.7 0.0
20/10:30pm 16.8 15.3 13.1 79 2.1 S 13 17 7 9 1020.1 1019.9 0.0
20/10:00pm 16.6 15.7 11.5 72 2.8 S 7 11 4 6 1019.8 1019.7 0.0
20/09:30pm 17.7 15.6 12.4 71 2.9 S 15 19 8 10 1019.6 1019.5 0.0
20/09:00pm 18.2 15.2 12.6 70 3.1 S 20 26 11 14 1019.4 1019.3 0.0
20/08:30pm 18.3 15.3 12.7 70 3.1 S 20 26 11 14 1019.1 1019.0 0.0
20/08:00pm 18.4 15.0 12.4 68 3.3 S 22 26 12 14 1018.8 1018.7 0.0
20/07:30pm 18.3 15.7 13.2 72 2.9 SSW 19 22 10 12 1018.5 1018.4 0.0
20/07:00pm 19.4 15.0 11.7 61 4.3 S 26 37 14 20 1018.2 1018.1 0.0
20/06:30pm 19.6 14.6 12.1 62 4.2 SSW 30 35 16 19 1018.1 1018.0 0.0
20/06:00pm 21.2 15.2 12.1 56 5.1 S 35 48 19 26 1017.7 1017.5 0.0
20/05:30pm 21.4 15.7 11.1 52 5.7 S 32 43 17 23 1017.4 1017.2 0.0
20/05:00pm 22.5 17.4 11.9 51 6.0 SSW 30 41 16 22 1017.2 1017.0 0.0
20/04:50pm 22.2 17.0 11.6 51 5.9 S 30 54 16 29 1017.1 1016.9 0.0
20/04:30pm 22.1 16.4 11.2 50 6.1 SSW 32 43 17 23 1017.0 1016.8 0.0
20/04:00pm 22.7 17.4 11.4 49 6.3 S 30 41 16 22 1017.0 1016.8 0.0
20/03:30pm 22.6 17.7 11.4 49 6.3 SSW 28 39 15 21 1017.2 1017.0 0.0
20/03:00pm 22.5 18.2 10.9 48 6.4 S 24 33 13 18 1017.5 1017.3 0.0
20/02:30pm 23.1 18.4 10.5 45 6.9 S 26 37 14 20 1017.5 1017.3 0.0
20/02:00pm 22.7 18.1 9.5 43 7.1 SSW 24 37 13 20 1017.5 1017.3 0.0
20/01:30pm 22.4 18.4 9.2 43 7.1 SSW 20 32 11 17 1017.7 1017.5 0.0
20/01:00pm 21.8 18.4 9.3 45 6.7 S 17 26 9 14 1017.9 1017.7 0.0
20/12:30pm 21.0 18.1 9.6 48 6.1 SSW 15 24 8 13 1018.4 1018.3 0.0
20/12:00pm 20.2 17.0 10.0 52 5.5 SW 17 24 9 13 1018.6 1018.5 0.0
20/11:30am 19.5 16.6 9.7 53 5.2 SW 15 28 8 15 1018.8 1018.7 0.0
20/11:00am 19.6 16.3 9.5 52 5.4 SSW 17 26 9 14 1018.7 1018.6 0.0
20/10:30am 19.0 15.0 9.2 53 5.2 SSW 20 28 11 15 1018.7 1018.6 0.0
20/10:00am 18.5 15.3 9.8 57 4.6 SW 17 28 9 15 1018.6 1018.5 0.0
20/09:30am 18.3 15.0 9.6 57 4.6 WSW 17 24 9 13 1018.5 1018.4 0.0
20/09:00am 18.0 15.2 10.1 60 4.2 WSW 15 20 8 11 1018.3 1018.2 0.0
20/08:30am 17.7 15.0 10.3 62 3.9 W 15 19 8 10 1017.9 1017.7 0.0
20/08:00am 16.8 14.2 10.6 67 3.3 W 15 24 8 13 1017.7 1017.5 0.0
20/07:30am 15.4 12.8 10.6 73 2.5 W 15 20 8 11 1017.4 1017.2 0.0
20/07:00am 13.9 11.5 10.1 78 2.0 W 13 17 7 9 1017.0 1016.8 0.0
20/06:30am 13.8 11.3 9.8 77 2.1 W 13 17 7 9 1016.8 1016.6 0.0
20/06:00am 14.0 11.2 10.0 77 2.1 W 15 19 8 10 1016.7 1016.5 0.0
20/05:30am 14.0 11.5 9.6 75 2.3 W 13 15 7 8 1016.7 1016.5 0.0
20/05:00am 14.3 11.8 9.7 74 2.4 W 13 17 7 9 1016.7 1016.5 0.0
20/04:30am 14.1 11.6 9.7 75 2.3 WNW 13 15 7 8 1016.7 1016.5 0.0
20/04:00am 13.7 11.5 9.4 75 2.2 WNW 11 15 6 8 1016.6 1016.4 0.0
20/03:30am 13.6 10.9 9.1 74 2.3 W 13 15 7 8 1016.7 1016.5 0.0
20/03:00am 13.9 11.6 9.1 73 2.4 W 11 13 6 7 1016.6 1016.4 0.0
20/02:30am 13.7 11.0 9.0 73 2.4 W 13 15 7 8 1016.8 1016.6 0.0
20/02:00am 13.6 10.9 8.9 73 2.4 WNW 13 13 7 7 1016.8 1016.6 0.0
20/01:30am 13.5 10.8 8.8 73 2.4 W 13 15 7 8 1016.9 1016.7 0.0
20/01:00am 13.5 11.0 8.4 71 2.6 W 11 13 6 7 1017.1 1016.9 0.0
20/12:30am 14.1 11.3 8.7 70 2.7 WSW 13 17 7 9 1017.2 1017.0 0.0
20/12:00am 13.8 11.4 8.6 71 2.6 WSW 11 15 6 8 1017.2 1017.0 0.0
 
Date/Time
CDT
Temp
°C
App
Temp
°C
Dew
Point
°C
Rel
Hum
%
Delta-T
°C
Wind Press
QNH
hPa
Press
MSL
hPa
Rain since
9am
mm
Dir  Spd
km/h
Gust
km/h
Spd
kts
Gust
kts
19/11:30pm 13.2 11.3 7.6 69 2.7 WSW 7 9 4 5 1017.4 1017.2 0.0
19/11:00pm 13.8 11.2 7.8 67 3.0 W 11 13 6 7 1017.5 1017.3 0.0
19/10:30pm 14.2 12.1 8.2 67 3.0 W 9 11 5 6 1017.6 1017.4 0.0
19/10:00pm 14.2 11.6 7.7 65 3.2 WSW 11 13 6 7 1017.5 1017.3 0.0
19/09:30pm 14.5 12.3 7.8 64 3.3 WSW 9 11 5 6 1017.1 1016.9 0.0
19/09:00pm 15.7 13.2 8.0 60 3.9 SSW 11 13 6 7 1016.9 1016.7 0.0
19/08:30pm 16.6 13.3 8.1 57 4.3 SSW 15 17 8 9 1016.7 1016.5 0.0
19/08:00pm 17.3 13.2 7.9 54 4.8 S 19 22 10 12 1016.5 1016.3 0.0
19/07:30pm 18.1 13.5 8.1 52 5.1 SSW 22 30 12 16 1016.2 1016.0 0.0
19/07:00pm 18.9 14.0 8.3 50 5.5 SSW 24 33 13 18 1015.7 1015.5 0.0
19/06:30pm 19.3 14.7 8.0 48 5.8 S 22 32 12 17 1015.7 1015.5 0.0
19/06:00pm 20.1 15.1 8.1 46 6.2 S 24 32 13 17 1015.5 1015.3 0.0
19/05:30pm 20.2 15.2 8.2 46 6.2 SSW 24 37 13 20 1015.3 1015.1 0.0
19/05:03pm 20.8 14.7 8.4 45 6.5 SSW 30 48 16 26 1015.1 1014.9 0.0
19/05:00pm 20.5 13.8 7.5 43 6.7 SSW 32 48 17 26 1015.0 1014.8 0.0
19/04:30pm 21.3 14.9 6.8 39 7.4 S 30 41 16 22 1015.0 1014.8 0.0
19/04:00pm 21.5 14.9 6.2 37 7.7 S 30 46 16 25 1015.2 1015.0 0.0
19/03:51pm 21.8 15.6 6.1 36 7.9 S 28 46 15 25 1015.1 1014.9 0.0
19/03:30pm 22.0 15.3 5.8 35 8.1 S 30 43 16 23 1015.2 1015.0 0.0
19/03:00pm 21.5 14.9 6.2 37 7.7 S 30 43 16 23 1015.6 1015.4 0.0
19/02:30pm 21.8 15.3 6.5 37 7.8 SSW 30 43 16 23 1015.6 1015.4 0.0
19/02:00pm 22.2 17.4 7.2 38 7.8 SSW 22 35 12 19 1015.7 1015.5 0.0
19/01:30pm 21.2 15.9 6.7 39 7.4 SW 24 35 13 19 1015.8 1015.6 0.0
19/01:00pm 21.2 16.3 7.1 40 7.2 S 22 30 12 16 1015.9 1015.7 0.0
19/12:30pm 20.7 16.3 7.3 42 6.9 SSW 20 35 11 19 1016.1 1015.9 0.0
19/12:00pm 20.2 14.9 6.9 42 6.7 SSW 24 35 13 19 1016.3 1016.1 0.0
19/11:30am 19.6 14.8 7.4 45 6.2 SSW 22 30 12 16 1016.4 1016.2 0.0
19/11:00am 19.2 14.8 7.3 46 6.1 S 20 28 11 15 1016.4 1016.2 0.0
19/10:30am 18.9 14.7 7.4 47 5.8 SSW 19 26 10 14 1016.3 1016.1 0.0
19/10:00am 18.4 14.0 7.5 49 5.5 S 20 28 11 15 1016.2 1016.0 0.0
19/09:30am 18.4 13.6 7.2 48 5.6 SSW 22 30 12 16 1016.1 1015.9 0.0
19/09:00am 17.8 12.6 7.2 50 5.3 SSW 24 30 13 16 1015.8 1015.6 0.0
19/08:30am 17.4 14.0 7.5 52 5.0 SW 15 19 8 10 1015.7 1015.5 0.0
19/08:00am 17.1 14.4 7.2 52 5.0 SW 11 15 6 8 1015.4 1015.2 0.0
19/07:30am 16.6 14.3 7.5 55 4.6 SW 9 15 5 8 1015.1 1014.9 0.0
19/07:00am 16.3 13.7 7.8 57 4.3 WSW 11 15 6 8 1014.8 1014.6 0.0
19/06:30am 16.3 13.7 7.8 57 4.3 WSW 11 15 6 8 1014.5 1014.3 0.0
19/06:00am 16.2 13.1 7.2 55 4.5 WSW 13 15 7 8 1014.3 1014.1 0.0
19/05:30am 16.1 13.7 6.8 54 4.6 WSW 9 11 5 6 1014.2 1014.0 0.0
19/05:00am 16.4 12.8 6.8 53 4.7 SW 15 20 8 11 1014.1 1013.9 0.0
19/04:30am 16.2 13.5 7.4 56 4.4 SW 11 15 6 8 1014.2 1014.0 0.0
19/04:00am 16.1 13.5 7.8 58 4.2 SW 11 15 6 8 1014.2 1014.0 0.0
19/03:30am 16.3 14.1 8.0 58 4.2 WSW 9 13 5 7 1014.2 1014.0 0.0
19/03:00am 16.4 13.8 7.9 57 4.3 WSW 11 15 6 8 1014.2 1014.0 0.0
19/02:30am 16.5 13.3 8.5 59 4.1 WSW 15 20 8 11 1014.3 1014.1 0.0
19/02:00am 16.4 13.6 8.4 59 4.1 WSW 13 19 7 10 1014.5 1014.3 0.0
19/01:30am 16.4 13.2 8.6 60 4.0 W 15 17 8 9 1014.8 1014.6 0.0
19/01:00am 16.4 14.6 9.3 63 3.7 WSW 9 15 5 8 1014.9 1014.7 0.0
19/12:30am 15.6 13.9 9.7 68 3.1 WSW 9 11 5 6 1014.8 1014.6 0.0
19/12:00am 15.4 13.2 9.3 67 3.1 SW 11 15 6 8 1014.8 1014.6 0.0
 
Date/Time
CDT
Temp
°C
App
Temp
°C
Dew
Point
°C
Rel
Hum
%
Delta-T
°C
Wind Press
QNH
hPa
Press
MSL
hPa
Rain since
9am
mm
Dir  Spd
km/h
Gust
km/h
Spd
kts
Gust
kts
18/11:30pm 16.2 13.5 8.9 62 3.8 SW 13 19 7 10 1014.8 1014.6 0.0
18/11:00pm 16.3 13.9 8.5 60 4.0 W 11 13 6 7 1014.8 1014.6 0.0
18/10:30pm 16.5 14.0 8.2 58 4.2 WSW 11 15 6 8 1014.7 1014.5 0.0
18/10:00pm 15.3 12.7 7.6 60 3.8 SW 11 13 6 7 1014.5 1014.3 0.0
18/09:30pm 16.4 12.3 7.9 57 4.3 SW 19 22 10 12 1014.2 1014.0 0.0
18/09:00pm 17.0 13.1 9.4 61 4.0 SSW 20 28 11 15 1014.0 1013.8 0.0
18/08:30pm 16.7 12.2 8.4 58 4.2 SSW 22 26 12 14 1013.7 1013.5 0.0

Other formats

Comma delimited format used in spreadsheet applications
http://www.bom.gov.au/fwo/IDS60801/IDS60801.94814.axf

JavaScript Object Notation format (JSON) in row-major order
http://www.bom.gov.au/fwo/IDS60801/IDS60801.94814.json

Data quality

Most of these data are generated automatically and are frequently updated. Quality checks on data are not normally performed. It is possible for incorrect values to appear. Refer to information at About Latest Weather Observations and please check the disclaimer before using these data.